createdAt,value
2022-11-28T00:01:29.747Z,9.40
2022-11-28T00:03:56.769Z,10.40
2022-11-28T00:06:23.710Z,10.85
2022-11-28T00:08:50.400Z,9.23
2022-11-28T00:11:49.068Z,9.23
2022-11-28T00:14:21.594Z,10.15
2022-11-28T00:16:48.543Z,8.40
2022-11-28T00:19:15.112Z,10.63
2022-11-28T00:21:42.234Z,9.43
2022-11-28T00:24:10.302Z,9.43
2022-11-28T00:26:41.632Z,9.65
2022-11-28T00:29:09.682Z,9.07
2022-11-28T00:31:43.190Z,12.82
2022-11-28T00:34:14.570Z,11.13
2022-11-28T00:36:44.457Z,10.45
2022-11-28T00:39:10.840Z,9.88
2022-11-28T00:41:37.263Z,9.93
2022-11-28T00:44:03.963Z,10.55
2022-11-28T00:46:30.436Z,9.98
2022-11-28T00:48:58.430Z,9.50
2022-11-28T00:51:30.107Z,10.68
2022-11-28T00:53:58.719Z,10.80
2022-11-28T00:56:31.194Z,9.90
2022-11-28T00:58:58.378Z,9.93
2022-11-28T01:01:24.721Z,10.55
2022-11-28T01:03:52.433Z,10.45
2022-11-28T01:06:27.959Z,10.25
2022-11-28T01:08:55.479Z,12.20
2022-11-28T01:11:22.303Z,9.95
2022-11-28T01:13:49.122Z,10.93
2022-11-28T01:16:15.577Z,9.82
2022-11-28T01:18:42.236Z,11.88
2022-11-28T01:21:08.961Z,9.98
2022-11-28T01:23:36.570Z,10.65
2022-11-28T01:26:04.738Z,11.65
2022-11-28T01:28:31.180Z,11.38
2022-11-28T01:31:03.276Z,9.60
2022-11-28T01:33:29.714Z,12.57
2022-11-28T01:35:58.161Z,12.02
2022-11-28T01:38:25.110Z,10.88
2022-11-28T01:40:52.502Z,11.85
2022-11-28T01:43:19.341Z,12.93
2022-11-28T01:45:45.729Z,11.55
2022-11-28T01:48:15.574Z,11.88
2022-11-28T01:50:43.449Z,11.02
2022-11-28T01:53:10.893Z,9.80
2022-11-28T01:55:48.607Z,11.82
2022-11-28T01:58:15.651Z,10.35
2022-11-28T02:00:42.028Z,12.27
2022-11-28T02:03:14.044Z,14.35
2022-11-28T02:05:40.912Z,11.18
2022-11-28T02:08:09.228Z,10.60
2022-11-28T02:11:03.292Z,12.98
2022-11-28T02:13:29.675Z,10.02
2022-11-28T02:16:13.269Z,11.70
2022-11-28T02:19:01.846Z,11.05
2022-11-28T02:21:46.198Z,12.57
2022-11-28T02:24:46.522Z,10.98
2022-11-28T02:27:46.967Z,11.10
2022-11-28T02:30:45.884Z,10.60
2022-11-28T02:33:20.760Z,13.25
2022-11-28T02:35:58.993Z,9.95
2022-11-28T02:38:46.329Z,11.48
2022-11-28T02:41:22.557Z,10.52
2022-11-28T02:44:10.011Z,10.00
2022-11-28T02:46:45.351Z,11.20
2022-11-28T02:49:19.594Z,10.70
2022-11-28T02:51:55.796Z,14.18
2022-11-28T02:54:27.247Z,10.07
2022-11-28T02:56:54.812Z,12.63
2022-11-28T02:59:44.199Z,11.25
2022-11-28T03:02:30.144Z,13.30
2022-11-28T03:05:39.851Z,11.07
2022-11-28T03:08:25.200Z,11.82
2022-11-28T03:10:54.563Z,11.57
2022-11-28T03:13:35.725Z,11.65
2022-11-28T03:16:22.439Z,10.77
2022-11-28T03:19:09.448Z,11.50
2022-11-28T03:21:40.814Z,11.95
2022-11-28T03:24:16.852Z,11.98
2022-11-28T03:27:32.699Z,10.93
2022-11-28T03:30:06.614Z,12.88
2022-11-28T03:32:38.292Z,12.68
2022-11-28T03:35:08.827Z,11.88
2022-11-28T03:37:42.464Z,12.63
2022-11-28T03:40:15.500Z,11.85
2022-11-28T03:45:20.637Z,12.98
2022-11-28T03:47:53.828Z,11.77
2022-11-28T03:50:35.624Z,11.05
2022-11-28T03:53:11.674Z,11.05
2022-11-28T03:55:44.381Z,14.73
2022-11-28T03:58:19.548Z,13.80
2022-11-28T04:00:58.067Z,12.00
2022-11-28T04:03:46.327Z,13.18
2022-11-28T04:06:21.875Z,12.60
2022-11-28T04:09:14.247Z,11.43
2022-11-28T04:12:04.502Z,11.90
2022-11-28T04:14:42.324Z,11.52
2022-11-28T04:17:12.540Z,11.13
2022-11-28T04:19:47.267Z,11.50
2022-11-28T04:22:24.153Z,11.65
2022-11-28T04:25:05.381Z,14.18
2022-11-28T04:27:37.521Z,12.38
2022-11-28T04:30:05.471Z,9.33
2022-11-28T04:32:35.919Z,10.65
2022-11-28T04:35:10.730Z,10.65
2022-11-28T04:37:39.079Z,12.05
2022-11-28T04:40:11.035Z,9.68
2022-11-28T04:42:42.251Z,12.95
2022-11-28T04:45:11.788Z,12.00
2022-11-28T04:47:38.348Z,15.32
2022-11-28T04:50:05.750Z,11.10
2022-11-28T04:52:52.030Z,11.45
2022-11-28T04:55:29.950Z,12.73
2022-11-28T04:58:16.712Z,10.73
2022-11-28T05:00:44.277Z,11.02
2022-11-28T05:03:11.430Z,12.95
2022-11-28T05:05:43.893Z,14.13
2022-11-28T05:08:10.492Z,8.38
2022-11-28T05:10:37.675Z,11.07
2022-11-28T05:13:04.402Z,12.00
2022-11-28T05:15:30.782Z,11.77
2022-11-28T05:17:57.591Z,14.15
2022-11-28T05:20:24.175Z,13.52
2022-11-28T05:22:50.599Z,10.07
2022-11-28T05:25:17.048Z,11.82
2022-11-28T05:27:43.508Z,11.52
2022-11-28T05:30:10.869Z,11.48
2022-11-28T05:32:37.249Z,10.75
2022-11-28T05:35:04.533Z,12.68
2022-11-28T05:37:31.073Z,12.57
2022-11-28T05:39:57.477Z,13.35
2022-11-28T05:42:25.668Z,10.93
2022-11-28T05:44:52.627Z,13.70
2022-11-28T05:47:19.056Z,11.27
2022-11-28T05:49:46.521Z,13.63
2022-11-28T05:52:13.216Z,14.13
2022-11-28T05:54:39.590Z,13.95
2022-11-28T05:57:07.077Z,12.70
2022-11-28T05:59:34.047Z,11.35
2022-11-28T06:02:00.952Z,12.88
2022-11-28T06:04:27.437Z,11.50
2022-11-28T06:06:54.809Z,9.98
2022-11-28T06:09:25.658Z,13.18
2022-11-28T06:14:20.563Z,13.02
2022-11-28T06:16:47.020Z,12.48
2022-11-28T06:19:13.728Z,12.50
2022-11-28T06:21:40.321Z,12.23
2022-11-28T06:24:07.094Z,13.25
2022-11-28T06:26:33.509Z,14.52
2022-11-28T06:28:59.859Z,15.48
2022-11-28T06:31:28.668Z,12.48
2022-11-28T06:33:55.403Z,13.32
2022-11-28T06:36:21.989Z,14.88
2022-11-28T06:38:48.400Z,15.30
2022-11-28T06:41:18.289Z,14.68
2022-11-28T06:43:44.668Z,14.55
2022-11-28T06:46:16.014Z,14.75
2022-11-28T06:48:43.857Z,15.52
2022-11-28T06:51:11.097Z,11.73
2022-11-28T06:53:37.527Z,11.25
2022-11-28T06:56:09.052Z,13.18
2022-11-28T06:58:35.872Z,12.15
2022-11-28T07:01:16.900Z,14.95
2022-11-28T07:03:45.030Z,13.98
2022-11-28T07:06:12.943Z,13.52
2022-11-28T07:08:39.927Z,13.82
2022-11-28T07:11:20.564Z,15.85
2022-11-28T07:13:47.664Z,15.90
2022-11-28T07:16:34.406Z,15.70
2022-11-28T07:19:01.102Z,14.32
2022-11-28T07:21:28.393Z,17.33
2022-11-28T07:23:54.761Z,14.60
2022-11-28T07:26:22.722Z,13.43
2022-11-28T07:28:50.932Z,14.05
2022-11-28T07:31:20.562Z,14.10
2022-11-28T07:33:49.025Z,13.38
2022-11-28T07:36:25.876Z,17.10
2022-11-28T07:38:55.806Z,14.35
2022-11-28T07:41:26.436Z,15.57
2022-11-28T07:43:56.468Z,13.57
2022-11-28T07:46:23.696Z,12.50
2022-11-28T07:48:50.079Z,12.70
2022-11-28T07:51:19.684Z,13.88
2022-11-28T07:53:47.299Z,14.95
2022-11-28T07:56:16.417Z,13.50
2022-11-28T07:58:45.198Z,11.20
2022-11-28T08:01:25.430Z,16.40
2022-11-28T08:03:52.823Z,16.40
2022-11-28T08:06:23.716Z,15.48
2022-11-28T08:08:51.409Z,14.40
2022-11-28T08:11:19.617Z,15.15
2022-11-28T08:13:46.403Z,15.32
2022-11-28T08:16:16.311Z,14.10
2022-11-28T08:18:43.368Z,13.85
2022-11-28T08:21:12.558Z,16.67
2022-11-28T08:23:40.233Z,17.23
2022-11-28T08:26:11.166Z,18.08
2022-11-28T08:28:37.629Z,14.90
2022-11-28T08:31:14.187Z,14.38
2022-11-28T08:33:41.287Z,13.85
2022-11-28T08:36:10.088Z,14.10
2022-11-28T08:38:37.229Z,17.38
2022-11-28T08:41:09.627Z,13.88
2022-11-28T08:43:37.357Z,14.27
2022-11-28T08:46:05.153Z,12.35
2022-11-28T08:48:32.843Z,14.38
2022-11-28T08:50:59.348Z,13.88
2022-11-28T08:53:26.064Z,17.80
2022-11-28T08:55:52.637Z,17.20
2022-11-28T08:58:19.062Z,13.77
2022-11-28T09:00:46.947Z,15.27
2022-11-28T09:03:15.487Z,13.93
2022-11-28T09:05:43.191Z,16.85
2022-11-28T09:08:11.783Z,16.25
2022-11-28T09:10:40.411Z,16.48
2022-11-28T09:13:07.457Z,15.13
2022-11-28T09:15:33.917Z,15.25
2022-11-28T09:18:00.804Z,16.08
2022-11-28T09:20:27.454Z,14.23
2022-11-28T09:22:54.041Z,14.00
2022-11-28T09:25:20.419Z,18.45
2022-11-28T09:27:46.819Z,17.65
2022-11-28T09:30:13.591Z,14.52
2022-11-28T09:32:40.119Z,17.48
2022-11-28T09:35:06.774Z,16.65
2022-11-28T09:37:33.213Z,17.05
2022-11-28T09:40:13.339Z,15.70
2022-11-28T09:42:43.993Z,21.30
2022-11-28T09:45:19.421Z,19.30
2022-11-28T09:47:53.181Z,20.33
2022-11-28T09:50:24.442Z,17.35
2022-11-28T09:53:15.853Z,16.05
2022-11-28T09:55:50.150Z,14.80
2022-11-28T09:58:35.412Z,19.45
2022-11-28T10:01:10.984Z,17.17
2022-11-28T10:03:55.284Z,16.50
2022-11-28T10:06:40.598Z,15.23
2022-11-28T10:09:35.201Z,15.32
2022-11-28T10:12:07.735Z,17.20
2022-11-28T10:14:56.961Z,15.00
2022-11-28T10:17:30.470Z,14.55
2022-11-28T10:20:06.531Z,15.98
2022-11-28T10:22:43.277Z,13.43
2022-11-28T10:25:41.599Z,14.20
2022-11-28T10:28:16.451Z,14.25
2022-11-28T10:30:49.130Z,13.38
2022-11-28T10:33:25.232Z,13.55
2022-11-28T10:35:56.625Z,13.68
2022-11-28T10:38:28.213Z,13.20
2022-11-28T10:41:01.645Z,11.68
2022-11-28T10:43:51.520Z,16.38
2022-11-28T10:46:41.356Z,16.33
2022-11-28T10:49:22.836Z,12.88
2022-11-28T10:52:01.052Z,13.70
2022-11-28T10:54:46.872Z,14.70
2022-11-28T10:57:21.232Z,14.43
2022-11-28T10:59:47.579Z,15.68
2022-11-28T11:02:44.900Z,14.02
2022-11-28T11:05:20.411Z,13.15
2022-11-28T11:07:52.842Z,14.75
2022-11-28T11:11:03.715Z,13.95
2022-11-28T11:13:33.315Z,14.27
2022-11-28T11:16:11.020Z,12.48
2022-11-28T11:18:54.384Z,14.07
2022-11-28T11:23:49.233Z,11.93
2022-11-28T11:26:32.354Z,14.70
2022-11-28T11:28:59.280Z,11.95
2022-11-28T11:31:29.659Z,11.30
2022-11-28T11:34:17.955Z,13.18
2022-11-28T11:36:45.184Z,12.93
2022-11-28T11:39:11.461Z,14.27
2022-11-28T11:41:43.447Z,12.75
2022-11-28T11:44:15.923Z,20.90
2022-11-28T11:46:57.355Z,14.43
2022-11-28T11:49:41.410Z,14.70
2022-11-28T11:52:27.101Z,14.77
2022-11-28T11:55:03.975Z,15.82
2022-11-28T11:58:06.084Z,16.80
2022-11-28T12:00:41.224Z,13.60
2022-11-28T12:03:28.481Z,15.95
2022-11-28T12:06:13.767Z,14.18
2022-11-28T12:08:52.584Z,16.98
2022-11-28T12:11:26.502Z,17.23
2022-11-28T12:13:53.796Z,17.27
2022-11-28T12:16:45.419Z,13.95
2022-11-28T12:19:33.555Z,14.00
2022-11-28T12:22:06.110Z,18.38
2022-11-28T12:24:49.458Z,17.83
2022-11-28T12:27:53.852Z,18.88
2022-11-28T12:30:44.740Z,14.82
2022-11-28T12:33:17.356Z,19.10
2022-11-28T12:35:52.591Z,18.88
2022-11-28T12:38:47.194Z,15.85
2022-11-28T12:41:53.680Z,16.35
2022-11-28T12:44:26.197Z,18.73
2022-11-28T12:47:30.347Z,12.90
2022-11-28T12:50:17.734Z,16.45
2022-11-28T12:53:00.142Z,17.23
2022-11-28T12:56:09.330Z,14.40
2022-11-28T12:58:51.383Z,20.85
2022-11-28T13:01:39.286Z,16.13
2022-11-28T13:04:20.233Z,16.88
2022-11-28T13:07:17.341Z,23.05
2022-11-28T13:10:01.405Z,20.88
2022-11-28T13:12:55.623Z,20.50
2022-11-28T13:15:45.596Z,20.67
2022-11-28T13:18:12.043Z,20.23
2022-11-28T13:20:58.301Z,20.63
2022-11-28T13:23:44.838Z,18.30
2022-11-28T13:26:25.585Z,20.95
2022-11-28T13:29:21.888Z,18.15
2022-11-28T13:32:07.681Z,19.67
2022-11-28T13:34:35.097Z,19.08
2022-11-28T13:40:19.079Z,20.60
2022-11-28T13:43:07.567Z,20.35
2022-11-28T13:45:39.342Z,17.42
2022-11-28T13:51:33.919Z,18.05
2022-11-28T13:54:19.808Z,21.30
2022-11-28T13:57:03.825Z,16.70
2022-11-28T13:59:31.672Z,16.92
2022-11-28T14:02:05.492Z,15.45
2022-11-28T14:04:33.253Z,17.85
2022-11-28T14:07:03.556Z,17.13
2022-11-28T14:10:07.255Z,16.65
2022-11-28T14:12:51.253Z,18.58
2022-11-28T14:15:33.744Z,16.60
2022-11-28T14:18:39.605Z,15.82
2022-11-28T14:21:38.917Z,17.10
2022-11-28T14:24:27.084Z,21.00
2022-11-28T14:27:00.971Z,18.73
2022-11-28T14:29:35.582Z,19.50
2022-11-28T14:34:53.524Z,38.60
2022-11-28T14:37:20.222Z,29.65
2022-11-28T14:39:49.917Z,22.90
2022-11-28T14:42:43.981Z,18.88
2022-11-28T14:45:26.409Z,17.33
2022-11-28T14:48:15.584Z,17.65
2022-11-28T14:50:42.168Z,17.58
2022-11-28T14:53:45.511Z,19.55
2022-11-28T14:56:14.756Z,19.25
2022-11-28T14:58:48.205Z,14.68
2022-11-28T15:01:27.545Z,14.75
2022-11-28T15:03:56.742Z,17.85
2022-11-28T15:06:32.911Z,18.65
2022-11-28T15:09:04.705Z,15.75
2022-11-28T15:12:11.286Z,16.90
2022-11-28T15:14:39.817Z,18.67
2022-11-28T15:17:12.245Z,17.95
2022-11-28T15:19:46.688Z,20.80
2022-11-28T15:22:42.602Z,17.05
2022-11-28T15:25:19.945Z,19.90
2022-11-28T15:27:46.603Z,17.52
2022-11-28T15:30:23.713Z,18.52
2022-11-28T15:32:57.468Z,18.05
2022-11-28T15:37:53.985Z,16.33
2022-11-28T15:40:32.810Z,15.60
2022-11-28T15:43:01.088Z,18.50
2022-11-28T15:45:35.190Z,16.88
2022-11-28T15:48:02.110Z,20.75
2022-11-28T15:50:31.435Z,17.42
2022-11-28T15:52:59.926Z,17.10
2022-11-28T15:55:31.111Z,17.70
2022-11-28T15:58:22.029Z,16.90
2022-11-28T16:00:53.192Z,19.20
2022-11-28T16:03:23.819Z,16.45
2022-11-28T16:05:55.175Z,18.08
2022-11-28T16:08:48.068Z,18.65
2022-11-28T16:11:19.103Z,22.13
2022-11-28T16:13:46.620Z,20.63
2022-11-28T16:16:18.345Z,19.17
2022-11-28T16:18:53.339Z,20.90
2022-11-28T16:21:19.883Z,24.48
2022-11-28T16:23:46.250Z,19.65
2022-11-28T16:26:34.857Z,19.20
2022-11-28T16:29:07.363Z,21.73
2022-11-28T16:31:34.504Z,20.48
2022-11-28T16:34:02.671Z,18.73
2022-11-28T16:36:37.043Z,21.65
2022-11-28T16:39:09.594Z,24.13
2022-11-28T16:41:37.355Z,21.42
2022-11-28T16:44:07.596Z,24.25
2022-11-28T16:46:38.301Z,20.88
2022-11-28T16:49:08.037Z,23.48
2022-11-28T16:51:35.536Z,24.63
2022-11-28T16:54:31.793Z,24.10
2022-11-28T16:57:10.301Z,23.80
2022-11-28T16:59:36.769Z,24.33
2022-11-28T17:02:03.740Z,22.35
2022-11-28T17:04:30.878Z,22.73
2022-11-28T17:07:01.759Z,24.63
2022-11-28T17:09:28.225Z,19.70
2022-11-28T17:12:08.303Z,18.77
2022-11-28T17:14:35.216Z,21.65
2022-11-28T17:17:01.598Z,18.85
2022-11-28T17:19:28.086Z,17.42
2022-11-28T17:21:58.370Z,20.70
2022-11-28T17:24:27.260Z,19.50
2022-11-28T17:26:54.301Z,19.90
2022-11-28T17:29:21.455Z,20.50
2022-11-28T17:31:48.639Z,19.23
2022-11-28T17:34:26.625Z,18.23
2022-11-28T17:36:53.264Z,18.20
2022-11-28T17:39:20.554Z,20.58
2022-11-28T17:41:49.387Z,19.13
2022-11-28T17:44:22.341Z,20.67
2022-11-28T17:46:50.446Z,19.20
2022-11-28T17:49:17.598Z,18.55
2022-11-28T17:51:44.395Z,19.27
2022-11-28T17:54:16.121Z,18.90
2022-11-28T17:56:43.751Z,21.83
2022-11-28T17:59:12.525Z,19.08
2022-11-28T18:01:39.147Z,19.40
2022-11-28T18:04:05.622Z,20.70
2022-11-28T18:06:32.285Z,19.30
2022-11-28T18:09:00.005Z,23.67
2022-11-28T18:11:28.115Z,21.55
2022-11-28T18:13:55.383Z,22.23
2022-11-28T18:16:25.522Z,23.67
2022-11-28T18:18:52.802Z,22.30
2022-11-28T18:21:19.524Z,21.35
2022-11-28T18:23:49.596Z,21.42
2022-11-28T18:26:20.637Z,22.08
2022-11-28T18:28:47.064Z,22.92
2022-11-28T18:31:17.309Z,21.08
2022-11-28T18:33:44.515Z,24.10
2022-11-28T18:36:20.120Z,20.48
2022-11-28T18:38:47.641Z,21.98
2022-11-28T18:41:16.362Z,21.88
2022-11-28T18:43:44.047Z,24.23
2022-11-28T18:46:13.123Z,22.55
2022-11-28T18:48:41.953Z,21.65
2022-11-28T18:51:19.043Z,20.92
2022-11-28T18:53:46.055Z,23.90
2022-11-28T18:56:13.989Z,21.58
2022-11-28T18:58:42.943Z,22.13
2022-11-28T19:01:12.550Z,20.80
2022-11-28T19:03:39.498Z,21.10
2022-11-28T19:06:12.102Z,21.60
2022-11-28T19:08:39.502Z,22.35
2022-11-28T19:11:14.314Z,30.77
2022-11-28T19:13:42.638Z,25.80
2022-11-28T19:16:18.165Z,24.58
2022-11-28T19:18:45.457Z,22.90
2022-11-28T19:21:15.231Z,24.50
2022-11-28T19:23:42.803Z,19.95
2022-11-28T19:26:11.535Z,21.88
2022-11-28T19:28:39.584Z,24.02
2022-11-28T19:31:07.403Z,17.10
2022-11-28T19:33:34.638Z,19.25
2022-11-28T19:36:07.153Z,21.85
2022-11-28T19:38:34.472Z,22.00
2022-11-28T19:41:16.493Z,18.92
2022-11-28T19:43:45.494Z,22.85
2022-11-28T19:46:13.526Z,18.85
2022-11-28T19:48:41.876Z,24.13
2022-11-28T19:51:10.139Z,21.38
2022-11-28T19:53:38.674Z,23.27
2022-11-28T19:56:07.932Z,22.20
2022-11-28T19:58:35.727Z,22.10
2022-11-28T20:01:15.911Z,17.02
2022-11-28T20:03:43.195Z,21.05
2022-11-28T20:06:13.383Z,21.98
2022-11-28T20:08:41.260Z,21.88
2022-11-28T20:11:21.559Z,21.45
2022-11-28T20:13:49.833Z,22.67
2022-11-28T20:16:17.745Z,21.35
2022-11-28T20:18:44.927Z,20.52
2022-11-28T20:21:18.182Z,19.95
2022-11-28T20:23:48.677Z,21.90
2022-11-28T20:26:17.094Z,19.90
2022-11-28T20:28:45.190Z,19.13
2022-11-28T20:31:21.517Z,21.10
2022-11-28T20:33:51.246Z,19.30
2022-11-28T20:36:21.524Z,16.77
2022-11-28T20:38:49.473Z,19.52
2022-11-28T20:41:17.897Z,20.75
2022-11-28T20:43:44.556Z,21.75
2022-11-28T20:46:22.741Z,22.00
2022-11-28T20:48:50.514Z,18.83
2022-11-28T20:51:24.655Z,24.77
2022-11-28T20:53:51.882Z,21.23
2022-11-28T20:56:22.064Z,22.83
2022-11-28T20:58:49.280Z,20.63
2022-11-28T21:01:18.794Z,28.23
2022-11-28T21:03:46.171Z,23.10
2022-11-28T21:06:13.076Z,22.45
2022-11-28T21:08:40.487Z,26.85
2022-11-28T21:11:30.540Z,21.70
2022-11-28T21:14:00.604Z,23.00
2022-11-28T21:16:29.142Z,23.02
2022-11-28T21:18:56.937Z,19.67
2022-11-28T21:21:26.498Z,21.67
2022-11-28T21:23:57.266Z,20.35
2022-11-28T21:26:30.187Z,23.17
2022-11-28T21:29:12.899Z,20.65
2022-11-28T21:31:44.868Z,25.38
2022-11-28T21:34:14.169Z,22.98
2022-11-28T21:36:40.995Z,22.30
2022-11-28T21:39:07.376Z,19.52
2022-11-28T21:41:33.995Z,22.77
2022-11-28T21:44:00.994Z,20.70
2022-11-28T21:46:28.353Z,18.45
2022-11-28T21:48:55.154Z,18.27
2022-11-28T21:51:24.637Z,19.70
2022-11-28T21:53:51.413Z,18.20
2022-11-28T21:56:18.768Z,21.42
2022-11-28T21:58:46.144Z,18.65
2022-11-28T22:01:14.767Z,21.70
2022-11-28T22:03:43.753Z,23.77
2022-11-28T22:06:20.547Z,20.20
2022-11-28T22:08:51.557Z,21.05
2022-11-28T22:11:19.629Z,20.05
2022-11-28T22:13:48.850Z,20.42
2022-11-28T22:16:23.461Z,20.75
2022-11-28T22:18:52.363Z,23.13
2022-11-28T22:24:06.519Z,20.25
2022-11-28T22:26:33.888Z,25.17
2022-11-28T22:29:04.183Z,21.08
2022-11-28T22:31:32.778Z,18.30
2022-11-28T22:33:59.433Z,21.90
2022-11-28T22:36:26.331Z,22.05
2022-11-28T22:38:58.023Z,22.02
2022-11-28T22:41:29.211Z,20.23
2022-11-28T22:44:00.742Z,21.05
2022-11-28T22:46:28.992Z,22.38
2022-11-28T22:49:00.023Z,19.98
2022-11-28T22:51:27.316Z,20.10
2022-11-28T22:53:55.220Z,18.20
2022-11-28T22:56:24.160Z,19.60
2022-11-28T22:58:51.404Z,19.20
2022-11-28T23:01:30.053Z,18.85
2022-11-28T23:03:57.178Z,20.42
2022-11-28T23:06:26.803Z,17.80
2022-11-28T23:08:55.605Z,21.10
2022-11-28T23:11:26.241Z,20.35
2022-11-28T23:13:54.240Z,17.38
2022-11-28T23:16:30.072Z,18.38
2022-11-28T23:18:59.416Z,19.70
2022-11-28T23:21:28.772Z,24.08
2022-11-28T23:23:55.298Z,21.30
2022-11-28T23:26:24.531Z,19.40
2022-11-28T23:28:52.181Z,17.95
2022-11-28T23:31:27.691Z,19.17
2022-11-28T23:33:55.308Z,21.35
2022-11-28T23:36:32.327Z,18.85
2022-11-28T23:39:07.208Z,22.80
2022-11-28T23:41:33.596Z,19.33
2022-11-28T23:44:00.434Z,19.02
2022-11-28T23:46:37.184Z,21.45
2022-11-28T23:49:05.626Z,21.70
2022-11-28T23:51:32.193Z,20.45
2022-11-28T23:53:58.645Z,23.17
2022-11-28T23:56:30.600Z,24.23
2022-11-28T23:58:59.854Z,19.85
